createdAt,value
2023-04-09T00:01:27.854Z,91.97
2023-04-09T00:03:55.767Z,91.74
2023-04-09T00:06:23.645Z,93.17
2023-04-09T00:08:51.974Z,91.57
2023-04-09T00:11:19.850Z,92.54
2023-04-09T00:13:47.698Z,91.63
2023-04-09T00:16:15.488Z,90.49
2023-04-09T00:18:43.266Z,90.62
2023-04-09T00:21:11.381Z,92.45
2023-04-09T00:23:39.161Z,94.08
2023-04-09T00:26:08.427Z,94.65
2023-04-09T00:28:36.770Z,98.03
2023-04-09T00:31:06.680Z,98.81
2023-04-09T00:33:34.509Z,100.00
2023-04-09T00:36:02.457Z,98.23
2023-04-09T00:38:30.685Z,100.00
2023-04-09T00:40:58.510Z,100.00
2023-04-09T00:43:27.195Z,100.00
2023-04-09T00:45:55.811Z,100.00
2023-04-09T00:48:23.794Z,100.00
2023-04-09T00:50:51.758Z,100.00
2023-04-09T00:53:20.411Z,100.00
2023-04-09T00:55:48.393Z,100.00
2023-04-09T00:58:16.189Z,100.00
2023-04-09T01:00:43.977Z,100.00
2023-04-09T01:03:12.007Z,100.00
2023-04-09T01:06:08.362Z,100.00
2023-04-09T01:09:08.179Z,100.00
2023-04-09T01:11:56.755Z,100.00
2023-04-09T01:14:30.887Z,100.00
2023-04-09T01:17:11.460Z,100.00
2023-04-09T01:19:42.968Z,100.00
2023-04-09T01:22:29.679Z,100.00
2023-04-09T01:25:28.721Z,100.00
2023-04-09T01:28:05.786Z,100.00
2023-04-09T01:30:34.145Z,100.00
2023-04-09T01:33:03.814Z,100.00
2023-04-09T01:35:31.933Z,100.00
2023-04-09T01:38:00.986Z,100.00
2023-04-09T01:40:29.002Z,100.00
2023-04-09T01:42:57.913Z,100.00
2023-04-09T01:45:26.370Z,100.00
2023-04-09T01:47:55.990Z,100.00
2023-04-09T01:50:24.044Z,100.00
2023-04-09T01:52:52.212Z,100.00
2023-04-09T01:55:20.099Z,100.00
2023-04-09T01:57:48.009Z,100.00
2023-04-09T02:00:16.573Z,100.00
2023-04-09T02:03:06.320Z,100.00
2023-04-09T02:05:44.698Z,100.00
2023-04-09T02:08:19.335Z,100.00
2023-04-09T02:10:53.831Z,100.00
2023-04-09T02:13:23.686Z,100.00
2023-04-09T02:15:52.580Z,100.00
2023-04-09T02:18:28.793Z,100.00
2023-04-09T02:20:57.449Z,100.00
2023-04-09T02:23:26.526Z,100.00
2023-04-09T02:25:54.578Z,100.00
2023-04-09T02:28:22.414Z,100.00
2023-04-09T02:30:52.782Z,100.00
2023-04-09T02:33:20.746Z,100.00
2023-04-09T02:35:48.790Z,100.00
2023-04-09T02:38:16.648Z,100.00
2023-04-09T02:40:44.429Z,99.85
2023-04-09T02:43:12.340Z,99.83
2023-04-09T02:45:40.084Z,100.00
2023-04-09T02:48:07.821Z,99.33
2023-04-09T02:50:36.712Z,100.00
2023-04-09T02:53:04.868Z,100.00
2023-04-09T02:55:32.974Z,100.00
2023-04-09T02:58:00.870Z,100.00
2023-04-09T03:00:28.649Z,100.00
2023-04-09T03:02:58.161Z,100.00
2023-04-09T03:05:26.252Z,100.00
2023-04-09T03:07:55.040Z,100.00
2023-04-09T03:10:22.887Z,100.00
2023-04-09T03:12:51.098Z,100.00
2023-04-09T03:15:18.909Z,100.00
2023-04-09T03:17:46.697Z,100.00
2023-04-09T03:20:14.840Z,100.00
2023-04-09T03:22:42.819Z,100.00
2023-04-09T03:25:26.003Z,100.00
2023-04-09T03:27:55.439Z,100.00
2023-04-09T03:30:35.749Z,100.00
2023-04-09T03:33:05.662Z,100.00
2023-04-09T03:35:38.235Z,100.00
2023-04-09T03:38:06.234Z,100.00
2023-04-09T03:40:34.100Z,100.00
2023-04-09T03:43:02.022Z,100.00
2023-04-09T03:45:30.045Z,100.00
2023-04-09T03:48:10.320Z,100.00
2023-04-09T03:50:42.250Z,100.00
2023-04-09T03:53:13.391Z,100.00
2023-04-09T03:55:42.078Z,100.00
2023-04-09T03:58:17.363Z,100.00
2023-04-09T04:00:45.832Z,100.00
2023-04-09T04:03:32.912Z,100.00
2023-04-09T04:06:13.494Z,100.00
2023-04-09T04:09:01.565Z,100.00
2023-04-09T04:11:39.667Z,100.00
2023-04-09T04:14:07.902Z,100.00
2023-04-09T04:16:35.776Z,100.00
2023-04-09T04:19:05.468Z,100.00
2023-04-09T04:21:39.890Z,100.00
2023-04-09T04:24:08.019Z,100.00
2023-04-09T04:26:35.839Z,100.00
2023-04-09T04:29:04.219Z,100.00
2023-04-09T04:31:52.241Z,100.00
2023-04-09T04:34:22.630Z,100.00
2023-04-09T04:36:58.490Z,100.00
2023-04-09T04:39:31.608Z,100.00
2023-04-09T04:42:10.483Z,100.00
2023-04-09T04:44:38.392Z,100.00
2023-04-09T04:47:16.084Z,100.00
2023-04-09T04:49:43.933Z,100.00
2023-04-09T04:52:11.957Z,100.00
2023-04-09T04:54:44.092Z,100.00
2023-04-09T04:57:17.082Z,100.00
2023-04-09T04:59:44.986Z,99.92
2023-04-09T05:02:14.530Z,97.64
2023-04-09T05:04:53.688Z,95.66
2023-04-09T05:07:28.970Z,96.45
2023-04-09T05:09:58.254Z,93.76
2023-04-09T05:12:26.642Z,94.57
2023-04-09T05:14:54.734Z,91.74
2023-04-09T05:17:22.579Z,94.07
2023-04-09T05:19:54.257Z,91.14
2023-04-09T05:22:28.819Z,94.91
2023-04-09T05:24:56.726Z,90.99
2023-04-09T05:27:26.239Z,86.84
2023-04-09T05:30:00.686Z,86.74
2023-04-09T05:32:29.175Z,87.06
2023-04-09T05:34:57.422Z,86.95
2023-04-09T05:37:27.027Z,87.12
2023-04-09T05:39:55.071Z,86.23
2023-04-09T05:42:22.944Z,86.66
2023-04-09T05:45:01.408Z,86.25
2023-04-09T05:47:29.461Z,85.05
2023-04-09T05:50:20.846Z,85.30
2023-04-09T05:52:51.762Z,83.84
2023-04-09T05:55:20.801Z,85.31
2023-04-09T05:57:57.411Z,85.29
2023-04-09T06:00:25.164Z,85.36
2023-04-09T06:02:53.021Z,84.29
2023-04-09T06:05:20.903Z,82.42
2023-04-09T06:07:49.144Z,84.29
2023-04-09T06:10:17.072Z,83.84
2023-04-09T06:12:45.056Z,82.75
2023-04-09T06:15:12.896Z,83.26
2023-04-09T06:17:41.086Z,83.54
2023-04-09T06:20:09.456Z,82.09
2023-04-09T06:22:37.649Z,79.28
2023-04-09T06:25:05.859Z,80.96
2023-04-09T06:27:33.838Z,79.51
2023-04-09T06:30:01.686Z,79.74
2023-04-09T06:32:29.787Z,81.64
2023-04-09T06:34:58.513Z,79.18
2023-04-09T06:37:26.347Z,81.28
2023-04-09T06:40:01.053Z,80.17
2023-04-09T06:42:29.424Z,78.80
2023-04-09T06:45:09.294Z,79.27
2023-04-09T06:47:37.371Z,79.37
2023-04-09T06:50:05.761Z,80.04
2023-04-09T06:52:33.565Z,76.54
2023-04-09T06:55:01.483Z,78.72
2023-04-09T06:57:29.253Z,77.02
2023-04-09T06:59:57.501Z,76.33
2023-04-09T07:02:25.555Z,75.97
2023-04-09T07:04:53.532Z,72.90
2023-04-09T07:07:24.308Z,72.38
2023-04-09T07:09:54.001Z,68.35
2023-04-09T07:12:32.216Z,69.04
2023-04-09T07:15:01.192Z,66.00
2023-04-09T07:17:29.602Z,67.13
2023-04-09T07:19:57.595Z,65.00
2023-04-09T07:22:27.430Z,65.22
2023-04-09T07:24:55.522Z,66.50
2023-04-09T07:27:25.453Z,67.76
2023-04-09T07:29:57.856Z,67.47
2023-04-09T07:32:28.225Z,64.99
2023-04-09T07:34:57.442Z,65.01
2023-04-09T07:37:25.702Z,64.54
2023-04-09T07:39:53.665Z,62.29
2023-04-09T07:42:21.996Z,64.63
2023-04-09T07:44:49.903Z,62.45
2023-04-09T07:47:17.722Z,62.15
2023-04-09T07:49:45.590Z,61.16
2023-04-09T07:52:13.814Z,63.68
2023-04-09T07:54:41.787Z,62.04
2023-04-09T07:57:09.599Z,59.55
2023-04-09T07:59:37.699Z,60.19
2023-04-09T08:02:05.827Z,60.74
2023-04-09T08:04:33.890Z,60.11
2023-04-09T08:07:01.894Z,61.32
2023-04-09T08:09:30.878Z,60.01
2023-04-09T08:11:59.270Z,59.67
2023-04-09T08:14:27.397Z,59.35
2023-04-09T08:16:55.584Z,59.33
2023-04-09T08:19:23.551Z,58.01
2023-04-09T08:21:51.527Z,58.00
2023-04-09T08:24:19.512Z,57.91
2023-04-09T08:26:47.550Z,56.00
2023-04-09T08:29:15.586Z,55.79
2023-04-09T08:31:43.756Z,56.24
2023-04-09T08:34:12.207Z,56.02
2023-04-09T08:36:40.210Z,55.64
2023-04-09T08:39:08.052Z,55.43
2023-04-09T08:41:42.251Z,54.88
2023-04-09T08:44:10.024Z,54.25
2023-04-09T08:46:37.902Z,55.08
2023-04-09T08:49:05.805Z,53.95
2023-04-09T08:51:33.598Z,54.65
2023-04-09T08:54:04.759Z,53.99
2023-04-09T08:56:33.118Z,53.07
2023-04-09T08:59:00.946Z,54.35
2023-04-09T09:01:30.756Z,54.79
2023-04-09T09:04:04.586Z,52.71
2023-04-09T09:06:35.722Z,53.86
2023-04-09T09:09:13.692Z,53.52
2023-04-09T09:11:43.770Z,53.00
2023-04-09T09:14:19.213Z,53.20
2023-04-09T09:16:56.391Z,53.33
2023-04-09T09:19:24.303Z,53.47
2023-04-09T09:21:59.445Z,52.67
2023-04-09T09:24:27.843Z,52.81
2023-04-09T09:26:57.714Z,51.60
2023-04-09T09:29:26.474Z,52.35
2023-04-09T09:31:55.731Z,52.03
2023-04-09T09:34:24.888Z,51.98
2023-04-09T09:36:52.927Z,51.78
2023-04-09T09:39:22.450Z,51.95
2023-04-09T09:42:08.308Z,51.67
2023-04-09T09:44:36.468Z,49.78
2023-04-09T09:47:04.934Z,50.34
2023-04-09T09:49:33.018Z,50.57
2023-04-09T09:52:03.647Z,51.57
2023-04-09T09:54:40.262Z,48.49
2023-04-09T10:10:31.316Z,49.53
2023-04-09T10:13:00.004Z,47.70
2023-04-09T10:15:31.200Z,45.73
2023-04-09T10:17:58.938Z,45.47
2023-04-09T10:20:32.770Z,46.26
2023-04-09T10:23:05.768Z,46.21
2023-04-09T10:25:34.222Z,43.88
2023-04-09T10:28:02.891Z,43.05
2023-04-09T10:30:37.542Z,45.68
2023-04-09T10:33:16.824Z,47.22
2023-04-09T10:35:47.294Z,45.89
2023-04-09T10:38:20.364Z,44.62
2023-04-09T10:40:52.152Z,43.70
2023-04-09T10:43:21.235Z,43.02
2023-04-09T10:45:53.427Z,45.04
2023-04-09T10:48:22.196Z,45.69
2023-04-09T10:50:54.394Z,42.40
2023-04-09T10:53:26.627Z,42.16
2023-04-09T10:55:55.493Z,40.60
2023-04-09T10:58:23.269Z,41.34
2023-04-09T11:00:53.798Z,45.30
2023-04-09T11:03:26.045Z,42.51
2023-04-09T11:06:06.063Z,41.76
2023-04-09T11:08:34.898Z,42.10
2023-04-09T11:11:03.624Z,42.36
2023-04-09T11:13:32.618Z,41.81
2023-04-09T11:16:01.598Z,42.57
2023-04-09T11:18:30.469Z,42.92
2023-04-09T11:21:01.194Z,40.25
2023-04-09T11:23:28.894Z,41.42
2023-04-09T11:25:56.861Z,41.90
2023-04-09T11:28:24.802Z,42.13
2023-04-09T11:30:52.535Z,43.09
2023-04-09T11:33:20.782Z,41.82
2023-04-09T11:35:49.110Z,40.52
2023-04-09T11:38:16.941Z,43.85
2023-04-09T11:40:48.943Z,40.42
2023-04-09T11:43:18.151Z,44.25
2023-04-09T11:45:49.591Z,42.82
2023-04-09T11:48:21.997Z,39.71
2023-04-09T11:50:50.860Z,38.92
2023-04-09T11:53:22.188Z,42.12
2023-04-09T11:55:52.339Z,39.71
2023-04-09T11:58:28.098Z,41.38
2023-04-09T12:00:58.973Z,42.56
2023-04-09T12:03:30.902Z,42.13
2023-04-09T12:06:03.021Z,42.74
2023-04-09T12:08:31.549Z,41.90
2023-04-09T12:11:11.904Z,43.29
2023-04-09T12:13:45.845Z,43.93
2023-04-09T12:16:14.567Z,44.88
2023-04-09T12:18:42.657Z,42.79
2023-04-09T12:21:10.532Z,43.94
2023-04-09T12:23:38.395Z,43.48
2023-04-09T12:26:06.101Z,42.81
2023-04-09T12:28:33.808Z,44.64
2023-04-09T12:31:03.623Z,44.75
2023-04-09T12:33:32.466Z,42.19
2023-04-09T12:36:00.373Z,43.01
2023-04-09T12:38:28.065Z,40.89
2023-04-09T12:40:55.953Z,41.69
2023-04-09T12:43:23.694Z,37.31
2023-04-09T12:45:52.945Z,38.39
2023-04-09T12:48:20.854Z,40.96
2023-04-09T12:50:48.694Z,37.15
2023-04-09T12:53:16.443Z,37.82
2023-04-09T12:55:44.138Z,38.20
2023-04-09T12:58:11.787Z,38.74
2023-04-09T13:00:39.418Z,38.64
2023-04-09T13:03:07.265Z,37.17
2023-04-09T13:05:35.800Z,39.53
2023-04-09T13:08:03.676Z,40.27
2023-04-09T13:10:31.657Z,40.88
2023-04-09T13:12:59.470Z,40.32
2023-04-09T13:15:27.605Z,41.82
2023-04-09T13:17:56.423Z,42.75
2023-04-09T13:20:24.302Z,42.57
2023-04-09T13:22:52.536Z,43.00
2023-04-09T13:25:20.636Z,43.67
2023-04-09T13:27:48.720Z,43.11
2023-04-09T13:30:16.484Z,42.58
2023-04-09T13:32:44.293Z,42.80
2023-04-09T13:35:12.134Z,43.92
2023-04-09T13:37:39.966Z,43.35
2023-04-09T13:40:09.315Z,43.11
2023-04-09T13:42:37.745Z,43.63
2023-04-09T13:45:06.142Z,41.68
2023-04-09T13:47:33.925Z,41.23
2023-04-09T13:50:01.695Z,42.53
2023-04-09T13:52:29.964Z,42.02
2023-04-09T13:54:57.727Z,40.75
2023-04-09T13:57:25.688Z,41.12
2023-04-09T13:59:53.444Z,41.03
2023-04-09T14:02:21.463Z,39.88
2023-04-09T14:04:49.338Z,41.05
2023-04-09T14:07:17.070Z,41.11
2023-04-09T14:09:44.800Z,41.34
2023-04-09T14:12:12.562Z,40.56
2023-04-09T14:14:40.268Z,41.98
2023-04-09T14:17:08.018Z,41.45
2023-04-09T14:19:35.777Z,41.55
2023-04-09T14:22:03.642Z,41.47
2023-04-09T14:24:31.335Z,40.13
2023-04-09T14:26:59.144Z,40.75
2023-04-09T14:29:26.899Z,41.64
2023-04-09T14:31:57.145Z,41.13
2023-04-09T14:34:25.497Z,41.03
2023-04-09T14:36:53.281Z,39.79
2023-04-09T14:39:21.332Z,40.29
2023-04-09T14:41:49.040Z,40.32
2023-04-09T14:44:16.756Z,41.62
2023-04-09T14:46:44.945Z,41.76
2023-04-09T14:49:12.918Z,40.08
2023-04-09T14:51:40.639Z,40.45
2023-04-09T14:54:08.367Z,40.90
2023-04-09T14:56:36.276Z,41.13
2023-04-09T14:59:04.468Z,42.31
2023-04-09T15:01:33.440Z,42.39
2023-04-09T15:04:01.318Z,41.79
2023-04-09T15:06:29.859Z,43.16
2023-04-09T15:08:57.533Z,43.69
2023-04-09T15:11:25.509Z,43.54
2023-04-09T15:13:53.250Z,43.38
2023-04-09T15:16:24.245Z,43.12
2023-04-09T15:18:52.958Z,42.41
2023-04-09T15:21:21.756Z,43.09
2023-04-09T15:23:53.112Z,42.59
2023-04-09T15:26:20.987Z,42.82
2023-04-09T15:28:48.749Z,43.73
2023-04-09T15:31:16.602Z,43.69
2023-04-09T15:33:44.962Z,44.57
2023-04-09T15:36:12.992Z,46.04
2023-04-09T15:38:40.987Z,47.65
2023-04-09T15:41:08.689Z,47.01
2023-04-09T15:43:36.742Z,46.93
2023-04-09T15:46:09.523Z,47.02
2023-04-09T15:48:47.416Z,47.56
2023-04-09T15:51:17.294Z,47.97
2023-04-09T15:53:45.780Z,47.26
2023-04-09T15:56:17.121Z,46.89
2023-04-09T15:58:45.171Z,47.54
2023-04-09T16:01:13.493Z,47.96
2023-04-09T16:03:42.450Z,47.76
2023-04-09T16:06:14.698Z,47.06
2023-04-09T16:08:42.646Z,46.78
2023-04-09T16:11:11.097Z,46.38
2023-04-09T16:13:42.564Z,46.27
2023-04-09T16:16:35.292Z,46.81
2023-04-09T16:19:07.355Z,48.29
2023-04-09T16:21:35.262Z,51.04
2023-04-09T16:24:04.297Z,54.23
2023-04-09T16:26:32.690Z,55.56
2023-04-09T16:29:04.210Z,55.89
2023-04-09T16:31:35.601Z,56.25
2023-04-09T16:34:04.175Z,56.57
2023-04-09T16:36:33.988Z,55.80
2023-04-09T16:39:02.004Z,54.97
2023-04-09T16:41:30.711Z,55.88
2023-04-09T16:44:01.623Z,55.27
2023-04-09T16:46:29.863Z,54.88
2023-04-09T16:48:58.785Z,54.62
2023-04-09T16:51:27.975Z,57.15
2023-04-09T16:53:58.131Z,58.27
2023-04-09T16:56:26.855Z,58.58
2023-04-09T16:58:55.426Z,58.25
2023-04-09T17:01:23.695Z,57.93
2023-04-09T17:03:51.702Z,58.77
2023-04-09T17:06:19.717Z,57.28
2023-04-09T17:08:47.599Z,56.42
2023-04-09T17:11:17.254Z,55.97
2023-04-09T17:13:45.292Z,55.69
2023-04-09T17:16:14.522Z,55.18
2023-04-09T17:18:42.484Z,53.40
2023-04-09T17:21:10.501Z,53.20
2023-04-09T17:23:38.408Z,52.94
2023-04-09T17:26:08.755Z,52.42
2023-04-09T17:28:36.723Z,52.28
2023-04-09T17:31:12.641Z,52.76
2023-04-09T17:33:40.695Z,54.03
2023-04-09T17:36:08.620Z,53.36
2023-04-09T17:38:36.486Z,53.43
2023-04-09T17:41:06.360Z,53.67
2023-04-09T17:43:35.483Z,55.82
2023-04-09T17:46:03.870Z,55.23
2023-04-09T17:48:32.126Z,56.78
2023-04-09T17:51:00.241Z,56.03
2023-04-09T17:53:28.547Z,56.83
2023-04-09T17:55:56.684Z,57.15
2023-04-09T17:58:25.167Z,56.08
2023-04-09T18:00:54.073Z,56.10
2023-04-09T18:03:22.350Z,56.61
2023-04-09T18:05:50.909Z,55.35
2023-04-09T18:08:19.000Z,56.98
2023-04-09T18:11:04.781Z,57.15
2023-04-09T18:13:39.116Z,57.28
2023-04-09T18:16:12.713Z,57.02
2023-04-09T18:18:40.867Z,57.45
2023-04-09T18:21:08.724Z,59.48
2023-04-09T18:23:36.590Z,59.42
2023-04-09T18:26:04.689Z,58.15
2023-04-09T18:28:34.150Z,58.44
2023-04-09T18:31:02.314Z,57.70
2023-04-09T18:33:30.384Z,57.96
2023-04-09T18:36:00.874Z,57.75
2023-04-09T18:38:29.713Z,58.01
2023-04-09T18:40:57.837Z,58.89
2023-04-09T18:43:26.114Z,57.57
2023-04-09T18:45:55.283Z,57.64
2023-04-09T18:48:23.631Z,58.46
2023-04-09T18:50:51.857Z,57.91
2023-04-09T18:53:20.008Z,57.82
2023-04-09T18:55:48.324Z,58.43
2023-04-09T18:58:17.803Z,58.98
2023-04-09T19:00:50.949Z,57.96
2023-04-09T19:03:20.094Z,58.44
2023-04-09T19:05:48.697Z,59.21
2023-04-09T19:08:20.013Z,58.49
2023-04-09T19:10:48.243Z,58.29
2023-04-09T19:13:17.593Z,58.96
2023-04-09T19:15:46.367Z,59.71
2023-04-09T19:18:14.782Z,59.94
2023-04-09T19:20:45.125Z,60.57
2023-04-09T19:23:20.324Z,61.41
2023-04-09T19:25:55.831Z,60.36
2023-04-09T19:28:26.940Z,60.47
2023-04-09T19:31:24.456Z,60.28
2023-04-09T19:33:57.697Z,59.89
2023-04-09T19:36:32.380Z,61.71
2023-04-09T19:39:00.447Z,61.03
2023-04-09T19:41:29.363Z,60.75
2023-04-09T19:43:57.561Z,60.42
2023-04-09T19:46:26.158Z,60.70
2023-04-09T19:48:54.330Z,61.47
2023-04-09T19:51:22.709Z,60.94
2023-04-09T19:53:52.171Z,58.93
2023-04-09T19:56:21.973Z,59.82
2023-04-09T19:58:50.600Z,60.78
2023-04-09T20:01:20.183Z,60.17
2023-04-09T20:03:48.880Z,58.82
2023-04-09T20:06:17.095Z,59.32
2023-04-09T20:08:45.506Z,59.38
2023-04-09T20:11:22.181Z,59.58
2023-04-09T20:13:50.122Z,59.54
2023-04-09T20:16:17.966Z,60.21
2023-04-09T20:18:46.944Z,62.21
2023-04-09T20:21:15.672Z,63.66
2023-04-09T20:23:45.349Z,63.44
2023-04-09T20:26:18.807Z,64.30
2023-04-09T20:28:50.417Z,64.08
2023-04-09T20:31:21.734Z,64.01
2023-04-09T20:34:00.951Z,63.91
2023-04-09T20:36:48.381Z,64.78
2023-04-09T20:39:18.482Z,65.66
2023-04-09T20:41:53.611Z,65.75
2023-04-09T20:44:26.761Z,66.08
2023-04-09T20:46:59.078Z,65.79
2023-04-09T20:49:33.928Z,64.75
2023-04-09T20:52:03.171Z,64.58
2023-04-09T20:54:34.584Z,65.61
2023-04-09T20:57:03.668Z,65.09
2023-04-09T20:59:32.597Z,65.43
2023-04-09T21:02:13.558Z,66.45
2023-04-09T21:04:49.092Z,66.08
2023-04-09T21:07:18.128Z,66.31
2023-04-09T21:09:46.205Z,66.70
2023-04-09T21:12:14.003Z,66.08
2023-04-09T21:14:41.893Z,66.27
2023-04-09T21:17:10.127Z,67.13
2023-04-09T21:19:37.949Z,67.53
2023-04-09T21:22:05.854Z,67.36
2023-04-09T21:24:35.399Z,67.46
2023-04-09T21:27:07.101Z,67.34
2023-04-09T21:29:36.999Z,67.31
2023-04-09T21:32:04.968Z,66.69
2023-04-09T21:34:35.333Z,67.76
2023-04-09T21:37:03.646Z,66.22
2023-04-09T21:39:31.856Z,66.28
2023-04-09T21:41:59.593Z,65.76
2023-04-09T21:44:27.373Z,66.17
2023-04-09T21:46:55.157Z,66.40
2023-04-09T21:49:23.319Z,66.12
2023-04-09T21:51:52.980Z,67.08
2023-04-09T21:54:21.390Z,66.36
2023-04-09T21:56:50.566Z,67.06
2023-04-09T21:59:18.413Z,67.25
2023-04-09T22:01:47.557Z,67.20
2023-04-09T22:04:17.282Z,67.66
2023-04-09T22:06:48.339Z,67.59
2023-04-09T22:09:16.055Z,67.63
2023-04-09T22:11:43.852Z,67.00
2023-04-09T22:14:12.076Z,67.46
2023-04-09T22:16:39.869Z,67.13
2023-04-09T22:19:08.823Z,67.33
2023-04-09T22:21:36.643Z,67.53
2023-04-09T22:24:04.395Z,67.57
2023-04-09T22:26:32.631Z,67.85
2023-04-09T22:29:00.842Z,67.38
2023-04-09T22:31:28.750Z,67.62
2023-04-09T22:33:57.596Z,67.94
2023-04-09T22:36:27.400Z,67.84
2023-04-09T22:38:55.431Z,66.20
2023-04-09T22:41:23.401Z,67.32
2023-04-09T22:43:52.487Z,66.72
2023-04-09T22:46:20.437Z,66.88
2023-04-09T22:48:48.612Z,67.16
2023-04-09T22:51:16.732Z,66.80
2023-04-09T22:53:46.514Z,67.01
2023-04-09T22:56:14.969Z,67.89
2023-04-09T22:58:42.869Z,66.87
2023-04-09T23:01:10.800Z,67.40
2023-04-09T23:03:38.721Z,67.66
2023-04-09T23:06:06.776Z,67.00
2023-04-09T23:08:34.547Z,68.39
2023-04-09T23:11:02.317Z,68.11
2023-04-09T23:13:30.489Z,67.15
2023-04-09T23:15:58.271Z,67.26
2023-04-09T23:18:26.035Z,67.89
2023-04-09T23:20:53.747Z,68.53
2023-04-09T23:23:21.416Z,68.71
2023-04-09T23:25:49.148Z,67.54
2023-04-09T23:28:16.892Z,67.63
2023-04-09T23:30:44.621Z,68.21
2023-04-09T23:33:12.405Z,67.96
2023-04-09T23:35:40.911Z,68.58
2023-04-09T23:38:08.735Z,68.03
2023-04-09T23:40:36.652Z,67.57
2023-04-09T23:43:04.646Z,67.29
2023-04-09T23:45:32.715Z,67.45
2023-04-09T23:48:00.669Z,67.45
2023-04-09T23:50:28.976Z,67.20
2023-04-09T23:53:00.037Z,67.60
2023-04-09T23:55:28.136Z,68.11
2023-04-09T23:57:56.628Z,68.31
